sensor_id;sensor_type;location;lat;lon;timestamp;P1;durP1;ratioP1;P2;durP2;ratioP2
57899;SDS011;60605;53.716;19.940;2023-01-16T00:07:28;7.00;;;4.40;;
57899;SDS011;60605;53.716;19.940;2023-01-16T00:12:32;13.00;;;5.30;;
57899;SDS011;60605;53.716;19.940;2023-01-16T00:22:39;5.40;;;3.30;;
57899;SDS011;60605;53.716;19.940;2023-01-16T00:27:42;6.40;;;4.20;;
57899;SDS011;60605;53.716;19.940;2023-01-16T00:32:45;7.40;;;3.90;;
57899;SDS011;60605;53.716;19.940;2023-01-16T00:37:49;4.70;;;4.00;;
57899;SDS011;60605;53.716;19.940;2023-01-16T00:47:55;7.10;;;3.30;;
57899;SDS011;60605;53.716;19.940;2023-01-16T00:52:59;5.90;;;3.00;;
57899;SDS011;60605;53.716;19.940;2023-01-16T00:58:03;5.80;;;3.20;;
57899;SDS011;60605;53.716;19.940;2023-01-16T01:03:06;15.00;;;3.40;;
57899;SDS011;60605;53.716;19.940;2023-01-16T01:08:11;5.70;;;3.20;;
57899;SDS011;60605;53.716;19.940;2023-01-16T01:13:14;5.70;;;2.90;;
57899;SDS011;60605;53.716;19.940;2023-01-16T01:18:18;5.10;;;2.90;;
57899;SDS011;60605;53.716;19.940;2023-01-16T01:28:24;5.00;;;3.20;;
57899;SDS011;60605;53.716;19.940;2023-01-16T01:38:30;4.80;;;2.90;;
57899;SDS011;60605;53.716;19.940;2023-01-16T01:43:40;5.00;;;2.90;;
57899;SDS011;60605;53.716;19.940;2023-01-16T01:54:28;3.50;;;2.90;;
57899;SDS011;60605;53.716;19.940;2023-01-16T01:59:40;8.30;;;3.60;;
57899;SDS011;60605;53.716;19.940;2023-01-16T02:04:48;4.70;;;2.80;;
57899;SDS011;60605;53.716;19.940;2023-01-16T02:10:15;5.30;;;2.80;;
57899;SDS011;60605;53.716;19.940;2023-01-16T02:15:29;3.60;;;2.70;;
57899;SDS011;60605;53.716;19.940;2023-01-16T02:20:36;3.60;;;2.50;;
57899;SDS011;60605;53.716;19.940;2023-01-16T02:42:47;4.70;;;2.50;;
57899;SDS011;60605;53.716;19.940;2023-01-16T02:48:05;3.40;;;2.30;;
57899;SDS011;60605;53.716;19.940;2023-01-16T02:53:17;5.90;;;2.20;;
57899;SDS011;60605;53.716;19.940;2023-01-16T02:58:25;4.70;;;2.70;;
57899;SDS011;60605;53.716;19.940;2023-01-16T03:08:56;4.60;;;2.40;;
57899;SDS011;60605;53.716;19.940;2023-01-16T03:14:07;3.90;;;2.20;;
57899;SDS011;60605;53.716;19.940;2023-01-16T03:35:25;2.60;;;2.20;;
57899;SDS011;60605;53.716;19.940;2023-01-16T03:40:34;6.30;;;2.70;;
57899;SDS011;60605;53.716;19.940;2023-01-16T03:45:47;3.90;;;2.40;;
57899;SDS011;60605;53.716;19.940;2023-01-16T03:50:59;4.00;;;2.20;;
57899;SDS011;60605;53.716;19.940;2023-01-16T03:56:13;2.50;;;2.20;;
57899;SDS011;60605;53.716;19.940;2023-01-16T04:06:59;3.40;;;2.10;;
57899;SDS011;60605;53.716;19.940;2023-01-16T04:12:03;3.70;;;2.10;;
57899;SDS011;60605;53.716;19.940;2023-01-16T04:17:08;3.60;;;2.30;;
57899;SDS011;60605;53.716;19.940;2023-01-16T04:22:22;4.40;;;2.50;;
57899;SDS011;60605;53.716;19.940;2023-01-16T04:27:27;2.60;;;2.10;;
57899;SDS011;60605;53.716;19.940;2023-01-16T04:32:31;4.00;;;2.20;;
57899;SDS011;60605;53.716;19.940;2023-01-16T04:37:34;2.50;;;2.00;;
57899;SDS011;60605;53.716;19.940;2023-01-16T04:42:38;5.30;;;1.90;;
57899;SDS011;60605;53.716;19.940;2023-01-16T04:47:45;2.90;;;2.00;;
57899;SDS011;60605;53.716;19.940;2023-01-16T04:52:49;2.90;;;2.40;;
57899;SDS011;60605;53.716;19.940;2023-01-16T05:02:56;3.50;;;2.00;;
57899;SDS011;60605;53.716;19.940;2023-01-16T05:07:59;4.20;;;2.20;;
57899;SDS011;60605;53.716;19.940;2023-01-16T05:13:21;3.30;;;2.20;;
57899;SDS011;60605;53.716;19.940;2023-01-16T05:18:25;3.30;;;2.00;;
57899;SDS011;60605;53.716;19.940;2023-01-16T05:23:29;2.20;;;1.90;;
57899;SDS011;60605;53.716;19.940;2023-01-16T05:33:36;3.40;;;2.40;;
57899;SDS011;60605;53.716;19.940;2023-01-16T05:38:40;4.00;;;2.40;;
57899;SDS011;60605;53.716;19.940;2023-01-16T05:43:43;6.00;;;2.40;;
57899;SDS011;60605;53.716;19.940;2023-01-16T05:49:02;4.10;;;2.20;;
57899;SDS011;60605;53.716;19.940;2023-01-16T05:54:08;4.30;;;2.70;;
57899;SDS011;60605;53.716;19.940;2023-01-16T05:59:13;3.30;;;2.50;;
57899;SDS011;60605;53.716;19.940;2023-01-16T06:04:16;5.10;;;3.20;;
57899;SDS011;60605;53.716;19.940;2023-01-16T06:09:21;5.00;;;3.00;;
57899;SDS011;60605;53.716;19.940;2023-01-16T06:19:28;6.20;;;3.70;;
57899;SDS011;60605;53.716;19.940;2023-01-16T06:24:31;4.30;;;2.90;;
57899;SDS011;60605;53.716;19.940;2023-01-16T06:29:34;6.60;;;3.30;;
57899;SDS011;60605;53.716;19.940;2023-01-16T06:34:39;4.40;;;2.90;;
57899;SDS011;60605;53.716;19.940;2023-01-16T06:39:42;5.60;;;2.80;;
57899;SDS011;60605;53.716;19.940;2023-01-16T06:49:49;7.50;;;3.40;;
57899;SDS011;60605;53.716;19.940;2023-01-16T06:54:52;3.80;;;2.70;;
57899;SDS011;60605;53.716;19.940;2023-01-16T06:59:55;6.50;;;3.60;;
57899;SDS011;60605;53.716;19.940;2023-01-16T07:04:59;5.50;;;3.60;;
57899;SDS011;60605;53.716;19.940;2023-01-16T07:10:02;6.60;;;3.00;;
57899;SDS011;60605;53.716;19.940;2023-01-16T07:15:07;6.10;;;3.10;;
57899;SDS011;60605;53.716;19.940;2023-01-16T07:20:31;5.50;;;3.20;;
57899;SDS011;60605;53.716;19.940;2023-01-16T07:25:53;7.50;;;3.80;;
57899;SDS011;60605;53.716;19.940;2023-01-16T07:30:59;10.60;;;3.60;;
57899;SDS011;60605;53.716;19.940;2023-01-16T07:36:06;5.20;;;3.10;;
57899;SDS011;60605;53.716;19.940;2023-01-16T07:41:10;6.00;;;3.10;;
57899;SDS011;60605;53.716;19.940;2023-01-16T07:46:13;6.60;;;3.70;;
57899;SDS011;60605;53.716;19.940;2023-01-16T07:51:17;5.60;;;3.50;;
57899;SDS011;60605;53.716;19.940;2023-01-16T07:56:20;8.10;;;4.00;;
57899;SDS011;60605;53.716;19.940;2023-01-16T08:01:24;13.90;;;4.90;;
57899;SDS011;60605;53.716;19.940;2023-01-16T08:06:27;7.40;;;3.80;;
57899;SDS011;60605;53.716;19.940;2023-01-16T08:11:31;6.80;;;3.60;;
57899;SDS011;60605;53.716;19.940;2023-01-16T08:16:41;5.30;;;3.90;;
57899;SDS011;60605;53.716;19.940;2023-01-16T08:21:45;5.90;;;3.60;;
57899;SDS011;60605;53.716;19.940;2023-01-16T08:26:48;6.20;;;4.00;;
57899;SDS011;60605;53.716;19.940;2023-01-16T08:31:51;5.00;;;3.30;;
57899;SDS011;60605;53.716;19.940;2023-01-16T08:36:56;5.10;;;3.90;;
57899;SDS011;60605;53.716;19.940;2023-01-16T08:42:00;5.50;;;3.90;;
57899;SDS011;60605;53.716;19.940;2023-01-16T08:47:22;10.20;;;5.10;;
57899;SDS011;60605;53.716;19.940;2023-01-16T08:52:46;19.00;;;7.60;;
57899;SDS011;60605;53.716;19.940;2023-01-16T08:57:50;13.20;;;6.10;;
57899;SDS011;60605;53.716;19.940;2023-01-16T09:02:53;17.30;;;6.60;;
57899;SDS011;60605;53.716;19.940;2023-01-16T09:07:58;22.20;;;8.00;;
57899;SDS011;60605;53.716;19.940;2023-01-16T09:13:03;22.40;;;8.30;;
57899;SDS011;60605;53.716;19.940;2023-01-16T09:18:25;17.40;;;7.30;;
57899;SDS011;60605;53.716;19.940;2023-01-16T09:23:29;27.40;;;10.00;;
57899;SDS011;60605;53.716;19.940;2023-01-16T09:28:32;20.70;;;7.80;;
57899;SDS011;60605;53.716;19.940;2023-01-16T09:33:36;12.60;;;6.00;;
57899;SDS011;60605;53.716;19.940;2023-01-16T09:38:43;20.80;;;8.20;;
57899;SDS011;60605;53.716;19.940;2023-01-16T09:43:46;20.90;;;8.00;;
57899;SDS011;60605;53.716;19.940;2023-01-16T09:54:18;11.10;;;5.30;;
57899;SDS011;60605;53.716;19.940;2023-01-16T09:59:46;12.20;;;5.30;;
57899;SDS011;60605;53.716;19.940;2023-01-16T10:04:54;9.50;;;4.70;;
57899;SDS011;60605;53.716;19.940;2023-01-16T10:15:42;5.90;;;3.90;;
57899;SDS011;60605;53.716;19.940;2023-01-16T10:21:19;8.70;;;4.10;;
57899;SDS011;60605;53.716;19.940;2023-01-16T10:26:29;6.20;;;3.40;;
57899;SDS011;60605;53.716;19.940;2023-01-16T10:31:38;4.80;;;4.10;;
57899;SDS011;60605;53.716;19.940;2023-01-16T10:37:06;5.90;;;3.70;;
57899;SDS011;60605;53.716;19.940;2023-01-16T10:42:15;7.10;;;4.40;;
57899;SDS011;60605;53.716;19.940;2023-01-16T10:47:41;7.70;;;4.10;;
57899;SDS011;60605;53.716;19.940;2023-01-16T10:53:04;10.00;;;5.30;;
57899;SDS011;60605;53.716;19.940;2023-01-16T10:58:26;7.90;;;4.60;;
57899;SDS011;60605;53.716;19.940;2023-01-16T11:08:43;5.90;;;4.00;;
57899;SDS011;60605;53.716;19.940;2023-01-16T11:13:49;5.90;;;4.00;;
57899;SDS011;60605;53.716;19.940;2023-01-16T11:19:20;7.50;;;4.30;;
57899;SDS011;60605;53.716;19.940;2023-01-16T11:24:30;6.60;;;3.90;;
57899;SDS011;60605;53.716;19.940;2023-01-16T11:29:37;6.70;;;4.00;;
57899;SDS011;60605;53.716;19.940;2023-01-16T11:34:45;9.60;;;3.80;;
57899;SDS011;60605;53.716;19.940;2023-01-16T11:39:50;8.30;;;4.60;;
57899;SDS011;60605;53.716;19.940;2023-01-16T11:44:57;12.00;;;6.40;;
57899;SDS011;60605;53.716;19.940;2023-01-16T11:55:39;6.10;;;4.30;;
57899;SDS011;60605;53.716;19.940;2023-01-16T12:06:23;9.60;;;4.60;;
57899;SDS011;60605;53.716;19.940;2023-01-16T12:17:31;62.20;;;23.30;;
57899;SDS011;60605;53.716;19.940;2023-01-16T12:28:09;55.70;;;24.40;;
57899;SDS011;60605;53.716;19.940;2023-01-16T12:38:37;26.50;;;11.90;;
57899;SDS011;60605;53.716;19.940;2023-01-16T13:15:34;235.90;;;85.00;;
57899;SDS011;60605;53.716;19.940;2023-01-16T13:20:40;246.30;;;74.50;;
57899;SDS011;60605;53.716;19.940;2023-01-16T13:25:46;128.70;;;66.30;;
57899;SDS011;60605;53.716;19.940;2023-01-16T13:30:53;63.20;;;27.50;;
57899;SDS011;60605;53.716;19.940;2023-01-16T13:41:45;77.60;;;28.40;;
57899;SDS011;60605;53.716;19.940;2023-01-16T13:46:51;152.90;;;43.80;;
57899;SDS011;60605;53.716;19.940;2023-01-16T13:51:56;158.00;;;44.20;;
57899;SDS011;60605;53.716;19.940;2023-01-16T13:57:01;128.30;;;44.20;;
57899;SDS011;60605;53.716;19.940;2023-01-16T14:07:49;102.20;;;47.80;;
57899;SDS011;60605;53.716;19.940;2023-01-16T14:18:34;87.90;;;36.00;;
57899;SDS011;60605;53.716;19.940;2023-01-16T14:23:39;83.50;;;37.10;;
57899;SDS011;60605;53.716;19.940;2023-01-16T14:29:49;56.10;;;27.60;;
57899;SDS011;60605;53.716;19.940;2023-01-16T14:34:36;44.90;;;22.80;;
57899;SDS011;60605;53.716;19.940;2023-01-16T14:39:51;65.60;;;32.80;;
57899;SDS011;60605;53.716;19.940;2023-01-16T14:44:58;103.90;;;47.80;;
57899;SDS011;60605;53.716;19.940;2023-01-16T14:50:38;54.00;;;27.40;;
57899;SDS011;60605;53.716;19.940;2023-01-16T14:56:05;84.40;;;40.50;;
57899;SDS011;60605;53.716;19.940;2023-01-16T15:01:26;54.20;;;24.80;;
57899;SDS011;60605;53.716;19.940;2023-01-16T15:06:52;53.40;;;29.50;;
57899;SDS011;60605;53.716;19.940;2023-01-16T15:11:59;130.90;;;41.30;;
57899;SDS011;60605;53.716;19.940;2023-01-16T15:22:41;140.60;;;51.20;;
57899;SDS011;60605;53.716;19.940;2023-01-16T15:27:46;51.40;;;23.00;;
57899;SDS011;60605;53.716;19.940;2023-01-16T15:32:58;170.80;;;61.90;;
57899;SDS011;60605;53.716;19.940;2023-01-16T15:38:25;127.60;;;45.10;;
57899;SDS011;60605;53.716;19.940;2023-01-16T15:43:29;58.40;;;26.30;;
57899;SDS011;60605;53.716;19.940;2023-01-16T15:48:54;76.70;;;34.80;;
57899;SDS011;60605;53.716;19.940;2023-01-16T15:54:18;42.70;;;19.60;;
57899;SDS011;60605;53.716;19.940;2023-01-16T16:04:31;57.20;;;26.70;;
57899;SDS011;60605;53.716;19.940;2023-01-16T16:09:34;62.30;;;27.30;;
57899;SDS011;60605;53.716;19.940;2023-01-16T16:14:40;78.40;;;38.80;;
57899;SDS011;60605;53.716;19.940;2023-01-16T16:26:02;123.10;;;55.80;;
57899;SDS011;60605;53.716;19.940;2023-01-16T16:36:34;74.40;;;34.80;;
57899;SDS011;60605;53.716;19.940;2023-01-16T16:41:46;76.70;;;31.50;;
57899;SDS011;60605;53.716;19.940;2023-01-16T16:47:19;49.00;;;22.80;;
57899;SDS011;60605;53.716;19.940;2023-01-16T16:52:44;65.00;;;34.70;;
57899;SDS011;60605;53.716;19.940;2023-01-16T16:57:48;100.20;;;36.10;;
57899;SDS011;60605;53.716;19.940;2023-01-16T17:02:57;78.30;;;34.30;;
57899;SDS011;60605;53.716;19.940;2023-01-16T17:08:08;74.90;;;35.40;;
57899;SDS011;60605;53.716;19.940;2023-01-16T17:13:21;86.20;;;37.70;;
57899;SDS011;60605;53.716;19.940;2023-01-16T17:18:26;73.20;;;33.10;;
57899;SDS011;60605;53.716;19.940;2023-01-16T17:23:31;71.00;;;32.80;;
57899;SDS011;60605;53.716;19.940;2023-01-16T17:28:35;57.40;;;30.20;;
57899;SDS011;60605;53.716;19.940;2023-01-16T17:33:38;53.90;;;31.10;;
57899;SDS011;60605;53.716;19.940;2023-01-16T17:38:42;63.10;;;34.40;;
57899;SDS011;60605;53.716;19.940;2023-01-16T17:43:46;64.30;;;29.80;;
57899;SDS011;60605;53.716;19.940;2023-01-16T17:49:08;47.50;;;24.40;;
57899;SDS011;60605;53.716;19.940;2023-01-16T17:59:34;52.40;;;28.30;;
57899;SDS011;60605;53.716;19.940;2023-01-16T18:04:38;87.30;;;48.20;;
57899;SDS011;60605;53.716;19.940;2023-01-16T18:09:43;62.60;;;34.80;;
57899;SDS011;60605;53.716;19.940;2023-01-16T18:14:47;64.90;;;34.70;;
57899;SDS011;60605;53.716;19.940;2023-01-16T18:20:10;58.50;;;30.40;;
57899;SDS011;60605;53.716;19.940;2023-01-16T18:25:19;89.30;;;39.60;;
57899;SDS011;60605;53.716;19.940;2023-01-16T18:30:24;38.30;;;23.00;;
57899;SDS011;60605;53.716;19.940;2023-01-16T18:35:28;43.30;;;25.50;;
57899;SDS011;60605;53.716;19.940;2023-01-16T18:40:34;87.00;;;36.40;;
57899;SDS011;60605;53.716;19.940;2023-01-16T18:45:57;64.60;;;34.40;;
57899;SDS011;60605;53.716;19.940;2023-01-16T18:51:20;176.40;;;62.10;;
57899;SDS011;60605;53.716;19.940;2023-01-16T18:56:43;112.70;;;44.30;;
57899;SDS011;60605;53.716;19.940;2023-01-16T19:07:15;120.10;;;40.30;;
57899;SDS011;60605;53.716;19.940;2023-01-16T19:12:24;68.90;;;33.30;;
57899;SDS011;60605;53.716;19.940;2023-01-16T19:17:30;53.00;;;30.20;;
57899;SDS011;60605;53.716;19.940;2023-01-16T19:22:34;90.70;;;40.80;;
57899;SDS011;60605;53.716;19.940;2023-01-16T19:27:37;62.70;;;28.50;;
57899;SDS011;60605;53.716;19.940;2023-01-16T19:37:44;53.00;;;26.10;;
57899;SDS011;60605;53.716;19.940;2023-01-16T19:42:48;90.60;;;35.60;;
57899;SDS011;60605;53.716;19.940;2023-01-16T19:48:10;56.60;;;29.80;;
57899;SDS011;60605;53.716;19.940;2023-01-16T19:53:15;63.50;;;26.70;;
57899;SDS011;60605;53.716;19.940;2023-01-16T19:58:19;69.20;;;37.00;;
57899;SDS011;60605;53.716;19.940;2023-01-16T20:03:22;57.30;;;27.40;;
57899;SDS011;60605;53.716;19.940;2023-01-16T20:08:26;43.90;;;23.20;;
57899;SDS011;60605;53.716;19.940;2023-01-16T20:13:33;38.50;;;20.40;;
57899;SDS011;60605;53.716;19.940;2023-01-16T20:18:37;65.30;;;29.00;;
57899;SDS011;60605;53.716;19.940;2023-01-16T20:23:41;87.50;;;44.30;;
57899;SDS011;60605;53.716;19.940;2023-01-16T20:28:45;55.20;;;26.30;;
57899;SDS011;60605;53.716;19.940;2023-01-16T20:38:52;44.80;;;22.10;;
57899;SDS011;60605;53.716;19.940;2023-01-16T20:43:55;44.30;;;23.30;;
57899;SDS011;60605;53.716;19.940;2023-01-16T20:49:18;48.10;;;24.00;;
57899;SDS011;60605;53.716;19.940;2023-01-16T20:54:24;83.20;;;33.00;;
57899;SDS011;60605;53.716;19.940;2023-01-16T20:59:29;61.40;;;28.70;;
57899;SDS011;60605;53.716;19.940;2023-01-16T21:04:33;97.20;;;43.90;;
57899;SDS011;60605;53.716;19.940;2023-01-16T21:09:37;41.30;;;23.00;;
57899;SDS011;60605;53.716;19.940;2023-01-16T21:14:41;40.80;;;22.50;;
57899;SDS011;60605;53.716;19.940;2023-01-16T21:25:07;44.40;;;24.00;;
57899;SDS011;60605;53.716;19.940;2023-01-16T21:30:12;37.40;;;23.10;;
57899;SDS011;60605;53.716;19.940;2023-01-16T21:35:18;51.70;;;29.50;;
57899;SDS011;60605;53.716;19.940;2023-01-16T21:40:21;43.90;;;26.10;;
57899;SDS011;60605;53.716;19.940;2023-01-16T21:45:26;41.60;;;23.10;;
57899;SDS011;60605;53.716;19.940;2023-01-16T21:50:58;38.40;;;22.60;;
57899;SDS011;60605;53.716;19.940;2023-01-16T21:56:04;43.40;;;25.40;;
57899;SDS011;60605;53.716;19.940;2023-01-16T22:01:09;39.00;;;22.40;;
57899;SDS011;60605;53.716;19.940;2023-01-16T22:06:13;35.60;;;20.00;;
57899;SDS011;60605;53.716;19.940;2023-01-16T22:11:17;40.10;;;20.10;;
57899;SDS011;60605;53.716;19.940;2023-01-16T22:16:39;25.80;;;15.70;;
57899;SDS011;60605;53.716;19.940;2023-01-16T22:22:02;45.60;;;20.60;;
57899;SDS011;60605;53.716;19.940;2023-01-16T22:32:08;41.10;;;20.20;;
57899;SDS011;60605;53.716;19.940;2023-01-16T22:42:17;42.80;;;21.70;;
57899;SDS011;60605;53.716;19.940;2023-01-16T22:47:21;29.50;;;17.00;;
57899;SDS011;60605;53.716;19.940;2023-01-16T22:52:25;29.30;;;16.10;;
57899;SDS011;60605;53.716;19.940;2023-01-16T22:57:29;24.50;;;15.20;;
57899;SDS011;60605;53.716;19.940;2023-01-16T23:02:32;29.10;;;18.10;;
57899;SDS011;60605;53.716;19.940;2023-01-16T23:07:36;28.00;;;16.60;;
57899;SDS011;60605;53.716;19.940;2023-01-16T23:12:39;29.60;;;16.90;;
57899;SDS011;60605;53.716;19.940;2023-01-16T23:22:45;23.80;;;14.80;;
57899;SDS011;60605;53.716;19.940;2023-01-16T23:27:50;22.30;;;15.20;;
57899;SDS011;60605;53.716;19.940;2023-01-16T23:32:53;22.40;;;15.10;;
57899;SDS011;60605;53.716;19.940;2023-01-16T23:37:59;31.50;;;15.30;;
57899;SDS011;60605;53.716;19.940;2023-01-16T23:43:03;27.70;;;15.50;;
57899;SDS011;60605;53.716;19.940;2023-01-16T23:48:25;21.70;;;14.80;;
57899;SDS011;60605;53.716;19.940;2023-01-16T23:53:29;19.20;;;12.10;;
57899;SDS011;60605;53.716;19.940;2023-01-16T23:58:33;20.80;;;13.70;;
